createdAt,value
2018-12-19T00:02:06.461Z,14.23
2018-12-19T00:04:17.279Z,15.40
2018-12-19T00:06:28.128Z,14.53
2018-12-19T00:08:38.977Z,15.80
2018-12-19T00:10:49.803Z,13.87
2018-12-19T00:13:00.658Z,14.80
2018-12-19T00:15:11.715Z,14.97
2018-12-19T00:17:22.598Z,14.43
2018-12-19T00:19:33.412Z,15.40
2018-12-19T00:21:44.290Z,15.20
2018-12-19T00:23:55.184Z,12.93
2018-12-19T00:26:06.004Z,14.20
2018-12-19T00:28:17.739Z,13.43
2018-12-19T00:30:28.598Z,12.93
2018-12-19T00:32:39.443Z,11.93
2018-12-19T00:34:50.294Z,12.33
2018-12-19T00:37:01.150Z,12.07
2018-12-19T00:39:11.984Z,14.17
2018-12-19T00:41:23.682Z,14.40
2018-12-19T00:43:34.628Z,12.77
2018-12-19T00:45:45.489Z,14.93
2018-12-19T00:47:56.324Z,13.47
2018-12-19T00:50:07.313Z,13.83
2018-12-19T00:52:18.162Z,15.37
2018-12-19T00:54:29.112Z,15.67
2018-12-19T00:56:39.937Z,14.93
2018-12-19T00:58:50.818Z,14.50
2018-12-19T01:01:01.636Z,14.37
2018-12-19T01:03:12.499Z,14.33
2018-12-19T01:05:23.394Z,14.13
2018-12-19T01:07:34.232Z,14.03
2018-12-19T01:09:45.104Z,12.40
2018-12-19T01:11:55.934Z,13.20
2018-12-19T01:14:06.947Z,12.23
2018-12-19T01:16:17.790Z,15.10
2018-12-19T01:18:28.627Z,13.20
2018-12-19T01:20:39.473Z,11.83
2018-12-19T01:22:50.300Z,13.10
2018-12-19T01:25:01.153Z,13.47
2018-12-19T01:27:11.993Z,14.30
2018-12-19T01:29:23.710Z,13.33
2018-12-19T01:31:35.467Z,14.50
2018-12-19T01:33:46.313Z,13.30
2018-12-19T01:35:57.149Z,15.60
2018-12-19T01:38:07.956Z,15.57
2018-12-19T01:40:18.822Z,16.40
2018-12-19T01:42:29.648Z,15.57
2018-12-19T01:44:40.639Z,15.30
2018-12-19T01:46:51.504Z,14.97
2018-12-19T01:49:02.345Z,15.77
2018-12-19T01:51:13.284Z,16.23
2018-12-19T01:53:24.159Z,15.73
2018-12-19T01:55:35.132Z,15.37
2018-12-19T01:57:45.969Z,16.53
2018-12-19T01:59:56.784Z,15.23
2018-12-19T02:02:07.682Z,16.77
2018-12-19T02:04:18.496Z,15.60
2018-12-19T02:06:30.156Z,16.00
2018-12-19T02:08:41.049Z,16.00
2018-12-19T02:10:51.896Z,16.60
2018-12-19T02:13:02.861Z,14.97
2018-12-19T02:15:13.703Z,15.77
2018-12-19T02:17:24.616Z,15.57
2018-12-19T02:19:36.442Z,15.27
2018-12-19T02:21:47.288Z,14.77
2018-12-19T02:23:58.115Z,16.23
2018-12-19T02:26:09.065Z,14.77
2018-12-19T02:28:19.896Z,15.60
2018-12-19T02:30:30.852Z,14.63
2018-12-19T02:32:41.796Z,15.27
2018-12-19T02:34:52.626Z,15.00
2018-12-19T02:37:03.460Z,15.80
2018-12-19T02:39:14.277Z,14.47
2018-12-19T02:41:25.235Z,15.10
2018-12-19T02:43:36.077Z,14.37
2018-12-19T02:45:46.909Z,13.67
2018-12-19T02:47:57.755Z,15.00
2018-12-19T02:50:08.584Z,12.60
2018-12-19T02:52:19.426Z,15.40
2018-12-19T02:54:30.411Z,15.27
2018-12-19T02:56:41.256Z,14.47
2018-12-19T02:58:52.088Z,14.30
2018-12-19T03:01:02.914Z,15.00
2018-12-19T03:03:13.852Z,12.70
2018-12-19T03:05:24.701Z,14.00
2018-12-19T03:07:35.619Z,13.60
2018-12-19T03:09:46.562Z,14.50
2018-12-19T03:11:57.395Z,14.23
2018-12-19T03:14:08.226Z,15.10
2018-12-19T03:16:19.308Z,14.67
2018-12-19T03:18:30.136Z,13.43
2018-12-19T03:20:40.978Z,12.40
2018-12-19T03:22:51.914Z,13.40
2018-12-19T03:25:03.078Z,14.60
2018-12-19T03:27:13.927Z,14.70
2018-12-19T03:29:24.802Z,13.77
2018-12-19T03:31:35.793Z,14.10
2018-12-19T03:33:46.629Z,14.67
2018-12-19T03:36:00.267Z,14.80
2018-12-19T03:38:13.357Z,12.07
2018-12-19T03:40:24.257Z,13.03
2018-12-19T03:42:35.120Z,14.70
2018-12-19T03:44:45.957Z,13.10
2018-12-19T03:46:56.804Z,13.90
2018-12-19T03:49:07.686Z,13.57
2018-12-19T03:51:18.617Z,13.70
2018-12-19T03:53:29.457Z,14.13
2018-12-19T03:55:40.310Z,13.50
2018-12-19T03:57:51.365Z,12.40
2018-12-19T04:00:03.137Z,12.20
2018-12-19T04:02:13.997Z,12.53
2018-12-19T04:04:24.848Z,12.40
2018-12-19T04:06:35.739Z,12.00
2018-12-19T04:08:46.563Z,12.37
2018-12-19T04:10:57.509Z,12.43
2018-12-19T04:13:08.339Z,12.63
2018-12-19T04:15:19.409Z,13.10
2018-12-19T04:17:30.361Z,12.47
2018-12-19T04:19:41.175Z,12.67
2018-12-19T04:21:52.115Z,12.00
2018-12-19T04:24:03.288Z,12.03
2018-12-19T04:26:14.112Z,12.43
2018-12-19T04:28:24.949Z,12.60
2018-12-19T04:30:37.804Z,12.40
2018-12-19T04:32:49.053Z,12.83
2018-12-19T04:34:59.893Z,12.87
2018-12-19T04:37:10.727Z,12.57
2018-12-19T04:39:21.554Z,11.87
2018-12-19T04:41:32.410Z,11.50
2018-12-19T04:43:43.330Z,10.50
2018-12-19T04:45:54.190Z,10.80
2018-12-19T04:48:05.126Z,11.47
2018-12-19T04:50:15.942Z,10.73
2018-12-19T04:52:26.893Z,11.10
2018-12-19T04:54:37.711Z,11.30
2018-12-19T04:56:48.544Z,10.60
2018-12-19T04:58:59.417Z,9.73
2018-12-19T05:01:10.264Z,10.53
2018-12-19T05:03:21.100Z,9.83
2018-12-19T05:05:31.946Z,10.33
2018-12-19T05:07:43.041Z,10.30
2018-12-19T05:09:53.884Z,10.73
2018-12-19T05:12:04.700Z,10.50
2018-12-19T05:14:15.992Z,10.93
2018-12-19T05:16:26.848Z,10.47
2018-12-19T05:18:37.675Z,10.83
2018-12-19T05:20:48.642Z,10.87
2018-12-19T05:22:59.516Z,9.30
2018-12-19T05:25:12.695Z,11.07
2018-12-19T05:27:23.552Z,10.07
2018-12-19T05:29:34.394Z,10.53
2018-12-19T05:31:45.248Z,10.60
2018-12-19T05:33:56.104Z,11.07
2018-12-19T05:36:07.066Z,10.70
2018-12-19T05:38:17.924Z,10.50
2018-12-19T05:40:28.781Z,10.90
2018-12-19T05:42:39.661Z,10.27
2018-12-19T05:44:50.522Z,10.20
2018-12-19T05:47:01.369Z,10.47
2018-12-19T05:49:12.217Z,10.30
2018-12-19T05:51:23.037Z,10.13
2018-12-19T05:53:33.896Z,10.83
2018-12-19T05:55:44.752Z,7.07
2018-12-19T05:57:55.580Z,10.37
2018-12-19T06:00:07.501Z,9.27
2018-12-19T06:02:18.382Z,9.80
2018-12-19T06:04:29.194Z,10.20
2018-12-19T06:06:40.071Z,9.93
2018-12-19T06:08:50.904Z,9.90
2018-12-19T06:11:01.766Z,10.03
2018-12-19T06:13:12.632Z,9.37
2018-12-19T06:15:23.454Z,10.40
2018-12-19T06:17:34.329Z,11.03
2018-12-19T06:19:45.257Z,11.20
2018-12-19T06:21:56.120Z,9.80
2018-12-19T06:24:06.952Z,10.97
2018-12-19T06:26:17.795Z,11.33
2018-12-19T06:28:28.661Z,11.70
2018-12-19T06:30:39.500Z,11.93
2018-12-19T06:32:50.594Z,12.50
2018-12-19T06:35:01.556Z,10.60
2018-12-19T06:37:12.399Z,11.00
2018-12-19T06:39:23.373Z,10.23
2018-12-19T06:41:34.296Z,10.20
2018-12-19T06:43:45.161Z,9.73
2018-12-19T06:45:56.005Z,9.87
2018-12-19T06:48:06.847Z,9.77
2018-12-19T06:50:17.674Z,9.87
2018-12-19T06:52:28.520Z,10.20
2018-12-19T06:54:39.362Z,9.57
2018-12-19T06:56:50.197Z,11.27
2018-12-19T06:59:01.061Z,10.23
2018-12-19T07:01:12.013Z,9.90
2018-12-19T07:03:22.873Z,10.57
2018-12-19T07:05:33.729Z,8.87
2018-12-19T07:07:44.600Z,9.63
2018-12-19T07:09:55.451Z,10.13
2018-12-19T07:12:06.283Z,10.23
2018-12-19T07:14:17.206Z,10.77
2018-12-19T07:16:28.119Z,11.40
2018-12-19T07:18:38.992Z,11.23
2018-12-19T07:20:50.051Z,10.60
2018-12-19T07:23:00.924Z,10.43
2018-12-19T07:25:11.820Z,10.27
2018-12-19T07:27:22.636Z,10.37
2018-12-19T07:29:33.500Z,10.90
2018-12-19T07:31:44.344Z,11.73
2018-12-19T07:33:55.209Z,9.90
2018-12-19T07:36:06.033Z,11.67
2018-12-19T07:38:16.890Z,10.00
2018-12-19T07:40:27.758Z,10.67
2018-12-19T07:42:38.612Z,8.47
2018-12-19T07:44:49.493Z,9.47
2018-12-19T07:47:00.334Z,9.80
2018-12-19T07:49:11.214Z,11.90
2018-12-19T07:51:22.050Z,9.63
2018-12-19T07:53:32.948Z,10.17
2018-12-19T07:55:43.995Z,9.53
2018-12-19T07:57:54.851Z,9.67
2018-12-19T08:00:05.846Z,9.17
2018-12-19T08:02:16.690Z,9.43
2018-12-19T08:04:27.875Z,8.47
2018-12-19T08:06:38.876Z,9.37
2018-12-19T08:08:49.701Z,9.53
2018-12-19T08:11:00.580Z,9.30
2018-12-19T08:13:11.419Z,8.07
2018-12-19T08:15:22.281Z,9.30
2018-12-19T08:17:33.132Z,8.77
2018-12-19T08:19:43.976Z,8.80
2018-12-19T08:21:54.857Z,9.10
2018-12-19T08:24:05.733Z,8.73
2018-12-19T08:26:16.679Z,8.93
2018-12-19T08:28:27.538Z,9.23
2018-12-19T08:30:38.507Z,9.47
2018-12-19T08:32:49.385Z,9.33
2018-12-19T08:35:00.248Z,10.40
2018-12-19T08:37:11.154Z,10.10
2018-12-19T08:39:22.141Z,9.73
2018-12-19T08:41:33.184Z,8.90
2018-12-19T08:43:44.049Z,8.90
2018-12-19T08:45:55.371Z,9.00
2018-12-19T08:48:06.286Z,10.97
2018-12-19T08:50:17.140Z,10.47
2018-12-19T08:52:28.045Z,9.97
2018-12-19T08:54:38.921Z,10.33
2018-12-19T08:56:49.825Z,9.80
2018-12-19T08:59:00.703Z,9.50
2018-12-19T09:01:11.548Z,9.93
2018-12-19T09:03:22.422Z,9.37
2018-12-19T09:05:33.372Z,9.57
2018-12-19T09:07:44.348Z,11.03
2018-12-19T09:09:55.206Z,10.17
2018-12-19T09:12:06.074Z,9.93
2018-12-19T09:14:16.946Z,10.80
2018-12-19T09:16:27.799Z,10.40
2018-12-19T09:18:38.668Z,11.27
2018-12-19T09:20:49.526Z,10.73
2018-12-19T09:23:00.418Z,10.50
2018-12-19T09:25:11.277Z,10.80
2018-12-19T09:27:22.245Z,10.80
2018-12-19T09:29:33.123Z,9.73
2018-12-19T09:31:45.477Z,10.33
2018-12-19T09:33:57.292Z,9.83
2018-12-19T09:36:08.161Z,10.33
2018-12-19T09:38:19.150Z,10.00
2018-12-19T09:40:30.049Z,10.13
2018-12-19T09:42:40.942Z,10.27
2018-12-19T09:44:51.846Z,10.63
2018-12-19T09:47:02.837Z,10.30
2018-12-19T09:49:14.089Z,10.17
2018-12-19T09:51:25.060Z,10.03
2018-12-19T09:53:35.954Z,10.73
2018-12-19T09:55:46.813Z,10.90
2018-12-19T09:57:57.648Z,11.03
2018-12-19T10:00:10.803Z,9.90
2018-12-19T10:02:23.008Z,9.77
2018-12-19T10:04:33.912Z,10.67
2018-12-19T10:06:44.780Z,10.70
2018-12-19T10:08:55.647Z,10.60
2018-12-19T10:11:06.485Z,11.00
2018-12-19T10:13:17.335Z,10.43
2018-12-19T10:15:28.200Z,10.97
2018-12-19T10:17:41.046Z,9.63
2018-12-19T10:19:51.976Z,10.70
2018-12-19T10:22:02.947Z,9.93
2018-12-19T10:24:14.070Z,10.60
2018-12-19T10:26:24.944Z,9.13
2018-12-19T10:28:35.806Z,11.37
2018-12-19T10:30:46.724Z,9.70
2018-12-19T10:32:57.689Z,11.10
2018-12-19T10:35:09.211Z,10.70
2018-12-19T10:37:20.085Z,11.00
2018-12-19T10:39:31.036Z,11.37
2018-12-19T10:41:41.900Z,11.00
2018-12-19T10:43:52.785Z,11.17
2018-12-19T10:46:03.681Z,12.73
2018-12-19T10:48:14.545Z,11.57
2018-12-19T10:50:25.387Z,11.23
2018-12-19T10:52:36.296Z,10.80
2018-12-19T10:54:47.208Z,10.93
2018-12-19T10:56:58.081Z,9.70
2018-12-19T10:59:08.921Z,10.10
2018-12-19T11:01:19.783Z,10.83
2018-12-19T11:03:30.656Z,10.40
2018-12-19T11:05:41.546Z,10.33
2018-12-19T11:07:52.417Z,10.37
2018-12-19T11:10:05.144Z,10.87
2018-12-19T11:12:16.052Z,11.67
2018-12-19T11:14:27.193Z,9.97
2018-12-19T11:16:38.058Z,10.93
2018-12-19T11:18:48.924Z,11.53
2018-12-19T11:21:00.041Z,11.63
2018-12-19T11:23:10.938Z,11.73
2018-12-19T11:25:21.774Z,10.10
2018-12-19T11:27:32.765Z,10.63
2018-12-19T11:29:43.648Z,10.37
2018-12-19T11:31:54.597Z,10.13
2018-12-19T11:34:05.451Z,10.37
2018-12-19T11:36:16.278Z,9.47
2018-12-19T11:38:27.166Z,10.00
2018-12-19T11:40:38.021Z,10.23
2018-12-19T11:42:48.886Z,9.73
2018-12-19T11:44:59.747Z,9.47
2018-12-19T11:47:10.586Z,10.03
2018-12-19T11:49:22.053Z,9.50
2018-12-19T11:51:32.899Z,10.43
2018-12-19T11:53:43.834Z,9.37
2018-12-19T11:55:54.685Z,9.20
2018-12-19T11:58:05.536Z,9.77
2018-12-19T12:00:16.412Z,8.87
2018-12-19T12:02:27.274Z,9.60
2018-12-19T12:04:38.124Z,8.23
2018-12-19T12:06:49.042Z,9.43
2018-12-19T12:08:59.932Z,8.43
2018-12-19T12:11:10.779Z,9.27
2018-12-19T12:13:21.626Z,9.07
2018-12-19T12:15:32.492Z,9.83
2018-12-19T12:17:43.449Z,10.90
2018-12-19T12:19:54.297Z,9.20
2018-12-19T12:22:05.161Z,10.03
2018-12-19T12:24:16.053Z,10.70
2018-12-19T12:26:26.894Z,10.67
2018-12-19T12:28:37.745Z,10.00
2018-12-19T12:30:49.442Z,8.50
2018-12-19T12:33:00.300Z,8.77
2018-12-19T12:35:11.172Z,8.87
2018-12-19T12:37:22.194Z,9.63
2018-12-19T12:39:33.084Z,9.20
2018-12-19T12:41:43.937Z,8.93
2018-12-19T12:43:54.774Z,9.53
2018-12-19T12:46:05.632Z,8.77
2018-12-19T12:48:16.472Z,9.10
2018-12-19T12:50:27.457Z,9.63
2018-12-19T12:52:38.321Z,10.43
2018-12-19T12:54:49.188Z,11.00
2018-12-19T12:57:00.042Z,10.83
2018-12-19T12:59:10.904Z,10.23
2018-12-19T13:01:21.765Z,10.60
2018-12-19T13:03:32.646Z,10.60
2018-12-19T13:05:43.507Z,9.97
2018-12-19T13:07:54.389Z,9.83
2018-12-19T13:10:07.247Z,11.10
2018-12-19T13:12:18.117Z,9.87
2018-12-19T13:14:29.106Z,9.63
2018-12-19T13:16:40.010Z,9.93
2018-12-19T13:18:50.904Z,9.37
2018-12-19T13:21:01.753Z,8.10
2018-12-19T13:23:12.609Z,10.13
2018-12-19T13:25:23.498Z,10.40
2018-12-19T13:27:34.377Z,9.60
2018-12-19T13:29:45.264Z,9.00
2018-12-19T13:31:56.516Z,9.00
2018-12-19T13:34:07.413Z,7.17
2018-12-19T13:36:18.300Z,8.10
2018-12-19T13:38:29.153Z,7.17
2018-12-19T13:40:39.997Z,7.13
2018-12-19T13:42:51.734Z,8.57
2018-12-19T13:45:03.757Z,7.43
2018-12-19T13:47:14.683Z,7.03
2018-12-19T13:49:25.588Z,7.43
2018-12-19T13:51:36.486Z,9.53
2018-12-19T13:53:47.361Z,9.13
2018-12-19T13:55:58.227Z,7.93
2018-12-19T13:58:09.069Z,7.83
2018-12-19T14:00:20.693Z,11.30
2018-12-19T14:02:31.523Z,9.40
2018-12-19T14:04:42.622Z,10.17
2018-12-19T14:06:53.517Z,10.60
2018-12-19T14:09:05.198Z,9.73
2018-12-19T14:11:16.053Z,10.70
2018-12-19T14:13:26.921Z,10.40
2018-12-19T14:15:37.797Z,11.57
2018-12-19T14:17:48.666Z,11.27
2018-12-19T14:19:59.530Z,10.73
2018-12-19T14:22:10.392Z,10.10
2018-12-19T14:24:21.259Z,10.67
2018-12-19T14:26:32.140Z,9.87
2018-12-19T14:28:42.994Z,11.13
2018-12-19T14:30:53.872Z,10.53
2018-12-19T14:33:04.743Z,10.30
2018-12-19T14:35:15.621Z,10.93
2018-12-19T14:37:26.475Z,11.60
2018-12-19T14:39:37.356Z,11.07
2018-12-19T14:41:48.254Z,10.80
2018-12-19T14:43:59.124Z,10.63
2018-12-19T14:46:10.017Z,10.83
2018-12-19T14:48:20.861Z,10.17
2018-12-19T14:50:31.733Z,11.20
2018-12-19T14:52:42.619Z,10.03
2018-12-19T14:54:53.476Z,11.03
2018-12-19T14:57:05.892Z,10.37
2018-12-19T14:59:16.934Z,10.83
2018-12-19T15:01:27.805Z,10.77
2018-12-19T15:03:38.633Z,10.43
2018-12-19T15:05:49.522Z,10.30
2018-12-19T15:08:00.393Z,10.57
2018-12-19T15:10:11.249Z,10.77
2018-12-19T15:12:25.739Z,9.77
2018-12-19T15:14:35.004Z,10.20
2018-12-19T15:16:45.907Z,9.60
2018-12-19T15:18:56.795Z,10.13
2018-12-19T15:21:07.769Z,10.60
2018-12-19T15:23:18.612Z,9.77
2018-12-19T15:25:29.483Z,10.07
2018-12-19T15:27:40.411Z,10.73
2018-12-19T15:29:51.256Z,11.03
2018-12-19T15:32:02.264Z,10.90
2018-12-19T15:34:13.156Z,10.37
2018-12-19T15:36:24.160Z,11.20
2018-12-19T15:38:35.037Z,10.50
2018-12-19T15:40:45.907Z,11.10
2018-12-19T15:42:56.784Z,10.23
2018-12-19T15:45:07.689Z,10.90
2018-12-19T15:47:18.514Z,10.23
2018-12-19T15:49:29.409Z,10.63
2018-12-19T15:51:40.269Z,11.27
2018-12-19T15:53:51.131Z,11.40
2018-12-19T15:56:02.009Z,11.60
2018-12-19T15:58:13.013Z,11.60
2018-12-19T16:00:23.885Z,12.23
2018-12-19T16:02:34.716Z,12.43
2018-12-19T16:04:45.620Z,11.63
2018-12-19T16:06:56.449Z,11.60
2018-12-19T16:09:07.347Z,10.93
2018-12-19T16:11:18.329Z,11.60
2018-12-19T16:13:29.198Z,12.63
2018-12-19T16:15:40.172Z,12.50
2018-12-19T16:17:51.119Z,12.30
2018-12-19T16:20:03.048Z,10.63
2018-12-19T16:22:13.894Z,11.33
2018-12-19T16:24:24.768Z,11.30
2018-12-19T16:26:35.650Z,11.70
2018-12-19T16:28:46.509Z,9.63
2018-12-19T16:30:57.393Z,10.53
2018-12-19T16:33:08.248Z,11.33
2018-12-19T16:35:19.138Z,10.97
2018-12-19T16:37:29.972Z,11.50
2018-12-19T16:39:40.820Z,10.70
2018-12-19T16:41:51.694Z,10.23
2018-12-19T16:44:02.600Z,10.77
2018-12-19T16:46:13.465Z,11.27
2018-12-19T16:48:24.329Z,10.63
2018-12-19T16:50:35.215Z,10.07
2018-12-19T16:52:46.195Z,11.93
2018-12-19T16:54:57.169Z,10.23
2018-12-19T16:57:08.179Z,10.97
2018-12-19T16:59:19.035Z,10.40
2018-12-19T17:01:29.952Z,10.53
2018-12-19T17:03:40.810Z,11.80
2018-12-19T17:05:51.696Z,9.77
2018-12-19T17:08:02.758Z,10.67
2018-12-19T17:10:13.638Z,10.93
2018-12-19T17:12:24.502Z,10.53
2018-12-19T17:14:35.380Z,8.57
2018-12-19T17:16:46.238Z,8.97
2018-12-19T17:18:57.098Z,10.13
2018-12-19T17:21:07.929Z,7.63
2018-12-19T17:23:18.770Z,7.30
2018-12-19T17:25:29.645Z,7.10
2018-12-19T17:27:40.496Z,10.43
2018-12-19T17:29:51.334Z,8.17
2018-12-19T17:32:02.518Z,8.50
2018-12-19T17:34:13.378Z,8.03
2018-12-19T17:36:24.209Z,12.73
2018-12-19T17:38:35.070Z,9.30
2018-12-19T17:40:45.910Z,12.20
2018-12-19T17:42:59.551Z,13.50
2018-12-19T17:45:09.619Z,16.53
2018-12-19T17:47:20.558Z,15.87
2018-12-19T17:49:31.421Z,13.33
2018-12-19T17:51:42.269Z,11.27
2018-12-19T17:53:53.124Z,12.83
2018-12-19T17:56:03.987Z,9.23
2018-12-19T17:58:14.850Z,9.37
2018-12-19T18:00:25.691Z,9.57
2018-12-19T18:02:36.565Z,7.10
2018-12-19T18:04:47.381Z,8.27
2018-12-19T18:06:58.255Z,11.13
2018-12-19T18:09:09.173Z,9.37
2018-12-19T18:11:20.026Z,10.33
2018-12-19T18:13:31.037Z,7.83
2018-12-19T18:15:41.857Z,9.47
2018-12-19T18:17:52.710Z,9.83
2018-12-19T18:20:05.037Z,8.17
2018-12-19T18:22:15.911Z,10.10
2018-12-19T18:24:26.831Z,11.00
2018-12-19T18:26:37.692Z,15.33
2018-12-19T18:28:48.529Z,17.90
2018-12-19T18:30:59.444Z,15.80
2018-12-19T18:33:10.320Z,12.93
2018-12-19T18:35:21.173Z,10.10
2018-12-19T18:37:33.427Z,14.70
2018-12-19T18:39:44.635Z,12.77
2018-12-19T18:41:55.471Z,14.70
2018-12-19T18:44:06.293Z,13.97
2018-12-19T18:46:17.173Z,8.40
2018-12-19T18:48:27.989Z,8.10
2018-12-19T18:50:38.876Z,7.37
2018-12-19T18:52:49.778Z,6.63
2018-12-19T18:55:00.738Z,7.17
2018-12-19T18:57:11.629Z,6.73
2018-12-19T18:59:22.494Z,7.70
2018-12-19T19:01:33.384Z,7.67
2018-12-19T19:03:44.379Z,8.13
2018-12-19T19:05:55.390Z,7.97
2018-12-19T19:08:06.238Z,8.10
2018-12-19T19:10:17.216Z,7.00
2018-12-19T19:12:28.077Z,8.20
2018-12-19T19:14:38.898Z,7.70
2018-12-19T19:16:49.856Z,8.33
2018-12-19T19:19:00.668Z,7.80
2018-12-19T19:21:11.585Z,7.83
2018-12-19T19:23:22.436Z,8.00
2018-12-19T19:25:33.423Z,8.37
2018-12-19T19:27:44.355Z,8.40
2018-12-19T19:29:55.191Z,8.00
2018-12-19T19:32:06.070Z,8.47
2018-12-19T19:34:17.452Z,7.77
2018-12-19T19:36:28.384Z,8.23
2018-12-19T19:38:39.219Z,8.37
2018-12-19T19:40:50.084Z,7.63
2018-12-19T19:43:00.976Z,7.57
2018-12-19T19:45:12.179Z,7.70
2018-12-19T19:47:23.158Z,7.00
2018-12-19T19:49:34.199Z,6.90
2018-12-19T19:51:45.051Z,6.97
2018-12-19T19:53:55.973Z,7.00
2018-12-19T19:56:06.845Z,5.80
2018-12-19T19:58:17.699Z,6.20
2018-12-19T20:00:30.066Z,6.30
2018-12-19T20:02:40.948Z,6.67
2018-12-19T20:04:51.785Z,6.47
2018-12-19T20:07:02.778Z,6.43
2018-12-19T20:09:13.645Z,6.17
2018-12-19T20:11:24.501Z,6.10
2018-12-19T20:13:35.390Z,6.27
2018-12-19T20:15:46.317Z,5.73
2018-12-19T20:17:57.189Z,5.43
2018-12-19T20:20:08.142Z,5.60
2018-12-19T20:22:19.093Z,5.30
2018-12-19T20:24:30.023Z,4.77
2018-12-19T20:26:40.868Z,5.07
2018-12-19T20:28:51.718Z,4.60
2018-12-19T20:31:02.968Z,4.53
2018-12-19T20:33:13.801Z,4.60
2018-12-19T20:35:24.685Z,4.40
2018-12-19T20:37:35.554Z,4.60
2018-12-19T20:39:46.452Z,4.33
2018-12-19T20:41:57.281Z,4.40
2018-12-19T20:44:08.117Z,3.33
2018-12-19T20:46:19.125Z,3.50
2018-12-19T20:48:30.000Z,3.10
2018-12-19T20:50:40.833Z,3.40
2018-12-19T20:52:51.721Z,2.70
2018-12-19T20:55:03.577Z,2.80
2018-12-19T20:57:14.437Z,2.83
2018-12-19T20:59:25.291Z,3.07
2018-12-19T21:01:36.225Z,2.83
2018-12-19T21:03:47.077Z,3.33
2018-12-19T21:05:57.885Z,2.93
2018-12-19T21:08:08.752Z,3.43
2018-12-19T21:10:19.618Z,3.90
2018-12-19T21:12:30.532Z,3.37
2018-12-19T21:14:41.352Z,3.90
2018-12-19T21:16:58.264Z,3.50
2018-12-19T21:19:09.169Z,3.90
2018-12-19T21:21:20.001Z,3.73
2018-12-19T21:23:30.891Z,3.33
2018-12-19T21:25:41.755Z,3.53
2018-12-19T21:27:52.617Z,3.33
2018-12-19T21:30:06.019Z,3.00
2018-12-19T21:32:16.872Z,2.73
2018-12-19T21:34:27.863Z,3.40
2018-12-19T21:36:38.714Z,3.23
2018-12-19T21:38:49.728Z,3.47
2018-12-19T21:41:00.642Z,3.23
2018-12-19T21:43:11.499Z,3.23
2018-12-19T21:45:22.377Z,3.33
2018-12-19T21:47:33.289Z,2.90
2018-12-19T21:49:44.297Z,2.93
2018-12-19T21:51:55.191Z,3.20
2018-12-19T21:54:06.065Z,2.90
2018-12-19T21:56:17.008Z,2.77
2018-12-19T21:58:27.979Z,2.67
2018-12-19T22:00:40.018Z,3.10
2018-12-19T22:02:50.864Z,3.00
2018-12-19T22:05:01.778Z,2.60
2018-12-19T22:07:12.752Z,2.60
2018-12-19T22:09:23.765Z,2.50
2018-12-19T22:11:34.857Z,2.40
2018-12-19T22:13:45.801Z,2.30
2018-12-19T22:15:56.758Z,2.63
2018-12-19T22:18:13.651Z,2.70
2018-12-19T22:20:24.615Z,1.80
2018-12-19T22:22:35.618Z,2.40
2018-12-19T22:24:46.525Z,2.40
2018-12-19T22:26:57.540Z,2.43
2018-12-19T22:29:08.456Z,2.27
2018-12-19T22:31:19.383Z,2.50
2018-12-19T22:33:30.237Z,2.20
2018-12-19T22:35:41.127Z,2.60
2018-12-19T22:37:52.084Z,2.80
2018-12-19T22:40:05.761Z,3.17
2018-12-19T22:42:16.652Z,2.80
2018-12-19T22:44:27.587Z,3.27
2018-12-19T22:46:38.578Z,2.67
2018-12-19T22:48:49.460Z,2.77
2018-12-19T22:51:00.380Z,2.73
2018-12-19T22:53:11.363Z,3.40
2018-12-19T22:55:22.258Z,2.93
2018-12-19T22:57:33.126Z,2.80
2018-12-19T22:59:43.996Z,2.47
2018-12-19T23:02:01.098Z,4.27
2018-12-19T23:04:12.129Z,4.60
2018-12-19T23:06:23.088Z,4.73
2018-12-19T23:08:34.058Z,3.70
2018-12-19T23:10:44.965Z,4.77
2018-12-19T23:12:55.828Z,4.77
2018-12-19T23:15:06.910Z,4.73
2018-12-19T23:17:23.990Z,3.13
2018-12-19T23:19:35.081Z,2.60
2018-12-19T23:21:46.074Z,3.20
2018-12-19T23:23:57.016Z,3.37
2018-12-19T23:26:07.868Z,3.10
2018-12-19T23:28:18.931Z,3.73
2018-12-19T23:30:29.906Z,3.37
2018-12-19T23:32:41.011Z,3.53
2018-12-19T23:34:52.057Z,3.00
2018-12-19T23:37:02.913Z,2.53
2018-12-19T23:39:13.761Z,2.60
2018-12-19T23:41:24.723Z,2.90
2018-12-19T23:43:35.588Z,2.70
2018-12-19T23:45:46.615Z,2.50
2018-12-19T23:47:57.530Z,2.60
2018-12-19T23:50:08.570Z,2.77
2018-12-19T23:52:19.636Z,2.73
2018-12-19T23:54:30.622Z,2.77
2018-12-19T23:56:41.589Z,2.83
2018-12-19T23:58:52.546Z,2.93
